createdAt,value
2022-09-26T01:03:18.406Z,2.55
2022-09-26T05:13:39.642Z,2.10
2022-09-26T05:16:09.594Z,1.65
2022-09-26T05:18:36.343Z,1.70
2022-09-26T05:21:03.169Z,2.20
2022-09-26T05:23:30.020Z,1.90
2022-09-26T05:25:56.679Z,1.67
2022-09-26T05:28:25.348Z,1.30
2022-09-26T05:30:52.623Z,1.52
2022-09-26T05:33:19.629Z,1.80
2022-09-26T05:35:50.460Z,1.90
2022-09-26T05:38:17.117Z,1.38
2022-09-26T05:40:43.784Z,1.67
2022-09-26T05:43:10.505Z,1.83
2022-09-26T05:45:37.702Z,1.70
2022-09-26T05:48:05.139Z,1.95
2022-09-26T07:17:28.491Z,1.60
2022-09-26T07:19:55.098Z,1.70
2022-09-26T07:22:21.685Z,1.65
2022-09-26T07:24:48.362Z,2.10
2022-09-26T07:27:15.003Z,1.75
2022-09-26T07:29:41.626Z,2.05
2022-09-26T09:31:56.363Z,2.33
2022-09-26T09:34:31.989Z,3.25
2022-09-26T09:37:01.488Z,2.55
2022-09-26T09:39:31.280Z,3.08
2022-09-26T09:42:10.182Z,2.75
2022-09-26T09:44:59.351Z,2.92
2022-09-26T09:47:27.122Z,3.35
2022-09-26T09:49:53.862Z,4.30
2022-09-26T09:52:34.129Z,3.30
2022-09-26T09:55:12.753Z,3.47
2022-09-26T09:57:56.326Z,3.38
2022-09-26T10:00:23.574Z,3.55
2022-09-26T10:03:05.500Z,3.58
2022-09-26T10:08:11.422Z,4.32
2022-09-26T10:11:01.072Z,4.35
2022-09-26T10:13:27.712Z,4.95
2022-09-26T10:16:13.225Z,4.70
2022-09-26T10:19:05.818Z,3.85
2022-09-26T10:21:46.803Z,4.35
2022-09-26T10:24:25.990Z,4.15
2022-09-26T10:26:52.611Z,4.22
2022-09-26T10:29:22.837Z,4.18
2022-09-26T10:31:56.437Z,5.25
2022-09-26T10:34:28.015Z,5.55
2022-09-26T10:36:54.983Z,5.18
2022-09-26T10:39:23.108Z,5.43
2022-09-26T10:41:50.756Z,6.68
2022-09-26T10:44:33.878Z,6.35
2022-09-26T10:47:02.135Z,6.53
2022-09-26T10:49:36.430Z,7.68
2022-09-26T10:52:30.763Z,5.65
2022-09-26T10:55:09.349Z,7.40
2022-09-26T10:57:42.628Z,6.85
2022-09-26T11:00:09.689Z,5.93
2022-09-26T11:02:36.291Z,5.88
2022-09-26T11:05:04.773Z,4.90
2022-09-26T11:07:33.261Z,2.83
2022-09-26T11:10:01.029Z,4.15
2022-09-26T11:12:28.850Z,4.50
2022-09-26T11:14:58.074Z,4.45
2022-09-26T11:17:44.671Z,4.93
2022-09-26T11:20:31.426Z,3.53
2022-09-26T13:32:49.090Z,4.05
2022-09-26T13:35:19.930Z,4.28
2022-09-26T13:37:59.375Z,4.30
2022-09-26T13:40:34.380Z,5.90
2022-09-26T13:43:34.637Z,6.22
2022-09-26T13:46:15.691Z,3.90
2022-09-26T13:49:14.792Z,4.78
2022-09-26T13:52:11.824Z,4.18
2022-09-26T13:55:11.471Z,3.83
2022-09-26T13:57:44.975Z,3.10
2022-09-26T14:00:21.063Z,2.55
2022-09-26T14:03:06.761Z,2.95
2022-09-26T14:05:42.589Z,3.05
2022-09-26T14:10:56.135Z,2.55
2022-09-26T14:13:36.672Z,3.15
2022-09-26T14:16:05.038Z,2.78
2022-09-26T14:19:04.864Z,2.40
2022-09-26T14:21:58.345Z,1.77
2022-09-26T14:24:30.451Z,1.40
2022-09-26T14:27:09.019Z,1.77
2022-09-26T14:29:38.622Z,1.70
2022-09-26T14:34:55.184Z,2.00
2022-09-26T14:37:30.716Z,1.48
2022-09-26T14:40:03.936Z,1.70
2022-09-26T14:42:49.186Z,2.90
2022-09-26T14:45:37.469Z,2.83
2022-09-26T14:48:13.514Z,3.00
2022-09-26T14:50:47.599Z,2.30
2022-09-26T14:53:32.950Z,2.60
2022-09-26T14:56:27.250Z,2.47
2022-09-26T15:01:39.152Z,3.65
2022-09-26T15:04:47.041Z,3.40
2022-09-26T15:07:16.457Z,2.90
2022-09-26T15:09:56.644Z,3.35
2022-09-26T15:12:29.510Z,3.42
2022-09-26T15:15:21.180Z,3.60
2022-09-26T15:17:50.233Z,3.38
2022-09-26T15:20:18.651Z,3.03
2022-09-26T15:22:45.334Z,3.40
2022-09-26T15:25:23.400Z,4.28
2022-09-26T15:27:52.368Z,3.42
2022-09-26T15:30:21.870Z,4.15
2022-09-26T15:32:48.573Z,4.43
2022-09-26T15:35:15.220Z,4.07
2022-09-26T15:37:41.971Z,3.60
2022-09-26T15:40:22.414Z,3.95
2022-09-26T15:42:49.450Z,5.22
2022-09-26T15:45:26.246Z,4.80
2022-09-26T15:47:53.904Z,5.15
2022-09-26T15:50:42.586Z,4.05
2022-09-26T15:53:30.540Z,3.53
2022-09-26T15:56:13.632Z,3.55
2022-09-26T15:58:42.218Z,3.30
2022-09-26T16:01:09.022Z,2.83
2022-09-26T16:03:47.260Z,2.92
2022-09-26T16:06:21.121Z,2.72
2022-09-26T16:08:51.716Z,2.35
2022-09-26T16:11:18.455Z,1.77
2022-09-26T16:13:46.317Z,2.35
2022-09-26T16:16:15.570Z,2.00
2022-09-26T16:18:46.970Z,2.30
2022-09-26T16:21:21.638Z,1.92
2022-09-26T16:23:50.088Z,2.17
2022-09-26T16:26:39.861Z,1.80
2022-09-26T16:29:07.159Z,1.63
2022-09-26T16:31:44.502Z,1.98
2022-09-26T16:34:21.541Z,1.20
2022-09-26T16:36:48.467Z,2.15
2022-09-26T16:39:26.113Z,2.30
2022-09-26T16:42:03.772Z,2.60
2022-09-26T16:44:36.655Z,3.35
2022-09-26T16:47:21.474Z,4.35
2022-09-26T16:49:48.611Z,3.92
2022-09-26T16:52:21.403Z,2.78
2022-09-26T16:54:48.576Z,2.45
2022-09-26T16:57:25.271Z,1.35
2022-09-26T16:59:52.153Z,1.10
2022-09-26T17:02:18.948Z,1.40
2022-09-26T17:04:45.637Z,1.58
2022-09-26T17:07:16.130Z,1.33
2022-09-26T17:09:42.983Z,1.40
2022-09-26T17:12:16.812Z,1.67
2022-09-26T17:14:43.580Z,1.52
2022-09-26T17:17:22.261Z,1.30
2022-09-26T17:19:50.063Z,1.55
2022-09-26T17:22:18.247Z,1.33
2022-09-26T17:24:44.930Z,1.38
2022-09-26T17:27:22.072Z,1.20
2022-09-26T17:29:51.880Z,1.15
2022-09-26T17:32:28.712Z,1.30
2022-09-26T17:35:01.070Z,0.95
2022-09-26T17:37:28.064Z,1.23
2022-09-26T17:39:55.137Z,1.27
2022-09-26T19:16:16.943Z,1.20
2022-09-26T19:18:43.912Z,1.10
2022-09-26T19:21:30.535Z,1.10
2022-09-26T19:23:59.778Z,1.08
2022-09-26T19:26:38.712Z,1.33
2022-09-26T19:29:11.240Z,1.38
2022-09-26T19:31:39.044Z,0.75
2022-09-26T19:34:05.709Z,0.93
2022-09-26T19:36:32.369Z,0.73
2022-09-26T19:38:59.066Z,1.05
2022-09-26T19:41:25.932Z,1.23
2022-09-26T19:43:52.649Z,0.90
2022-09-26T19:46:25.118Z,0.93
2022-09-26T19:48:51.746Z,1.20
2022-09-26T19:51:18.502Z,0.98
2022-09-26T19:53:47.713Z,1.20
2022-09-26T19:56:14.494Z,1.48
2022-09-26T19:58:41.186Z,0.75
2022-09-26T20:01:17.457Z,0.88
2022-09-26T20:03:44.341Z,0.93
2022-09-26T20:06:17.115Z,1.45
2022-09-26T20:08:43.857Z,1.13
2022-09-26T20:11:10.607Z,1.52
2022-09-26T20:13:37.521Z,1.15
2022-09-26T20:16:04.244Z,1.33
2022-09-26T20:18:41.613Z,0.80
2022-09-26T20:21:08.701Z,1.00
2022-09-26T20:23:35.365Z,0.85
2022-09-26T20:26:02.008Z,1.00
2022-09-26T20:53:04.323Z,1.73
2022-09-26T20:55:31.032Z,1.20
2022-09-26T20:57:57.949Z,1.13
2022-09-26T21:00:24.668Z,1.40
2022-09-26T21:02:52.083Z,1.40
2022-09-26T21:05:21.043Z,1.10
2022-09-26T21:07:47.704Z,1.35
2022-09-26T21:10:30.730Z,1.38
2022-09-26T21:12:57.599Z,0.73
2022-09-26T21:15:25.638Z,1.00
2022-09-26T21:17:52.552Z,1.65
2022-09-26T21:20:29.792Z,1.65
2022-09-26T21:22:56.554Z,1.90
2022-09-26T21:25:25.065Z,1.90
2022-09-26T21:28:15.674Z,2.40
2022-09-26T21:30:42.834Z,1.98
2022-09-26T21:33:09.787Z,2.42
